Time;durP1;ratioP1;P1;durP2;ratioP2;P2;SDS_P1;SDS_P2;PMS_P1;PMS_P2;Temp;Humidity;BMP_temperature;BMP_pressure;BME280_temperature;BME280_humidity;BME280_pressure;Samples;Min_cycle;Max_cycle;Signal;HPM_P1;HPM_P2
2021/05/07 00:01:04;;;;;;;34.72;25.95;;;5.60;99.90;;;;;;5053091;28;20491;-77
2021/05/07 00:03:30;;;;;;;37.30;26.75;;;5.60;99.90;;;;;;5053118;28;20188;-77
2021/05/07 00:05:56;;;;;;;35.87;27.50;;;5.60;99.90;;;;;;5052533;28;20546;-78
2021/05/07 00:08:25;;;;;;;32.58;24.38;;;5.50;99.90;;;;;;5053006;28;20208;-73
2021/05/07 00:10:51;;;;;;;34.65;26.55;;;5.50;99.90;;;;;;5053222;28;20188;-77
2021/05/07 00:13:17;;;;;;;31.13;24.75;;;5.50;99.90;;;;;;5053166;28;20525;-76
2021/05/07 00:15:43;;;;;;;34.50;26.23;;;5.50;99.90;;;;;;5052751;28;20181;-77
2021/05/07 00:18:08;;;;;;;32.07;25.80;;;5.50;99.90;;;;;;5053089;28;20177;-75
2021/05/07 00:20:34;;;;;;;35.43;27.73;;;5.60;99.90;;;;;;5053037;28;20189;-76
2021/05/07 00:23:00;;;;;;;35.28;24.55;;;5.50;99.90;;;;;;5052879;28;20181;-76
2021/05/07 00:25:26;;;;;;;36.10;26.97;;;5.60;99.90;;;;;;5052746;28;20530;-76
2021/05/07 00:28:20;;;;;;;37.93;27.23;;;5.70;99.90;;;;;;5052830;28;20538;-76
2021/05/07 00:30:46;;;;;;;36.50;26.35;;;5.70;99.90;;;;;;5050962;28;20315;-76
2021/05/07 00:33:12;;;;;;;37.13;27.70;;;5.70;99.90;;;;;;5052651;28;20245;-75
2021/05/07 00:35:37;;;;;;;35.40;26.40;;;5.60;99.90;;;;;;5052460;28;20627;-76
2021/05/07 00:38:04;;;;;;;32.43;25.27;;;5.50;99.90;;;;;;5052814;28;20252;-77
2021/05/07 00:40:30;;;;;;;31.50;25.52;;;5.50;99.90;;;;;;5052742;28;20196;-75
2021/05/07 00:42:56;;;;;;;37.13;27.98;;;5.50;99.90;;;;;;5052778;28;20173;-76
2021/05/07 00:45:22;;;;;;;32.40;24.40;;;5.50;99.90;;;;;;5052314;28;20166;-77
2021/05/07 00:48:06;;;;;;;31.33;24.10;;;5.50;99.90;;;;;;5052644;28;20201;-77
2021/05/07 00:50:33;;;;;;;31.40;24.40;;;5.50;99.90;;;;;;5052614;28;20617;-75
2021/05/07 00:53:00;;;;;;;36.25;25.83;;;5.60;99.90;;;;;;5053780;28;20177;-75
2021/05/07 00:55:27;;;;;;;32.17;24.42;;;5.50;99.90;;;;;;5054700;28;20676;-75
2021/05/07 00:57:53;;;;;;;28.02;23.27;;;5.40;99.90;;;;;;5056279;28;20275;-76
2021/05/07 01:00:19;;;;;;;34.67;24.58;;;5.40;99.90;;;;;;5056609;28;20162;-76
2021/05/07 01:02:45;;;;;;;30.88;23.60;;;5.40;99.90;;;;;;5055276;28;20196;-76
2021/05/07 01:05:11;;;;;;;32.17;23.87;;;5.40;99.90;;;;;;5056026;28;20173;-75
2021/05/07 01:07:37;;;;;;;30.60;22.23;;;5.30;99.90;;;;;;5056062;28;20300;-77
2021/05/07 01:10:06;;;;;;;30.17;22.48;;;5.10;99.90;;;;;;5056365;28;20181;-76
2021/05/07 01:12:32;;;;;;;32.45;22.00;;;5.00;99.90;;;;;;5054992;28;20173;-78
2021/05/07 01:15:05;;;;;;;27.02;21.92;;;4.90;99.90;;;;;;5055813;28;20212;-77
2021/05/07 01:17:32;;;;;;;28.05;20.48;;;4.90;99.90;;;;;;5055890;28;20195;-77
2021/05/07 01:20:24;;;;;;;30.38;23.63;;;5.00;99.90;;;;;;5056205;28;20173;-78
2021/05/07 01:22:53;;;;;;;33.60;23.55;;;5.10;99.90;;;;;;5056075;28;20172;-75
2021/05/07 01:25:22;;;;;;;30.77;23.10;;;5.10;99.90;;;;;;5055512;28;20179;-78
2021/05/07 01:27:50;;;;;;;33.83;23.88;;;5.10;99.90;;;;;;5055871;28;20611;-77
2021/05/07 01:30:20;;;;;;;37.28;24.20;;;5.20;99.90;;;;;;5056001;28;20197;-77
2021/05/07 01:32:50;;;;;;;27.45;21.90;;;5.20;99.90;;;;;;5055965;28;20179;-75
2021/05/07 01:35:22;;;;;;;35.40;24.40;;;5.20;99.90;;;;;;5054143;28;20217;-79
2021/05/07 01:37:50;;;;;;;33.67;24.88;;;5.20;99.90;;;;;;5055539;28;20563;-78
2021/05/07 01:40:23;;;;;;;36.55;25.80;;;5.20;99.90;;;;;;5055782;28;20193;-76
2021/05/07 01:42:50;;;;;;;36.92;27.33;;;5.10;99.90;;;;;;5055640;28;20165;-76
2021/05/07 01:45:18;;;;;;;36.20;24.85;;;5.00;99.90;;;;;;5055252;28;20165;-78
2021/05/07 01:47:44;;;;;;;32.45;24.15;;;5.10;99.90;;;;;;5055305;28;20197;-77
2021/05/07 01:50:12;;;;;;;33.70;25.73;;;5.10;99.90;;;;;;5055207;28;20178;-75
2021/05/07 01:52:38;;;;;;;35.03;24.08;;;5.10;99.90;;;;;;5055343;28;20502;-75
2021/05/07 01:55:09;;;;;;;39.63;25.83;;;5.10;99.90;;;;;;5055010;28;20205;-76
2021/05/07 01:57:36;;;;;;;32.03;23.55;;;5.10;99.90;;;;;;5055172;28;20217;-76
2021/05/07 02:00:23;;;;;;;32.33;25.73;;;5.10;99.90;;;;;;5055415;28;20524;-78
2021/05/07 02:02:50;;;;;;;38.55;26.10;;;5.20;99.90;;;;;;5055328;28;20173;-77
2021/05/07 02:05:17;;;;;;;33.55;24.42;;;5.20;99.90;;;;;;5054861;28;20170;-75
2021/05/07 02:07:43;;;;;;;35.30;25.38;;;5.20;99.90;;;;;;5054902;28;20205;-77
2021/05/07 02:10:11;;;;;;;34.60;26.40;;;5.20;99.90;;;;;;5055116;28;20645;-77
2021/05/07 02:12:37;;;;;;;36.72;26.52;;;5.20;99.90;;;;;;5054967;28;20440;-77
2021/05/07 02:15:09;;;;;;;35.57;24.97;;;5.20;99.90;;;;;;5054616;28;20232;-78
2021/05/07 02:17:35;;;;;;;38.67;25.98;;;5.20;99.90;;;;;;5054817;28;20430;-77
2021/05/07 02:20:01;;;;;;;36.57;26.83;;;5.20;99.90;;;;;;5055040;28;21038;-79
2021/05/07 02:22:27;;;;;;;36.30;25.57;;;5.20;99.90;;;;;;5054926;28;20169;-75
2021/05/07 02:24:52;;;;;;;41.67;25.33;;;5.20;99.90;;;;;;5054661;28;20626;-76
2021/05/07 02:27:18;;;;;;;33.17;25.10;;;5.10;99.90;;;;;;5054694;28;20193;-78
2021/05/07 02:29:44;;;;;;;32.13;24.57;;;5.00;99.90;;;;;;5053555;28;20184;-78
2021/05/07 02:32:09;;;;;;;35.80;24.10;;;5.00;99.90;;;;;;5053359;28;20210;-78
2021/05/07 02:34:35;;;;;;;33.20;25.80;;;5.00;99.90;;;;;;5054237;28;20209;-78
2021/05/07 02:37:01;;;;;;;36.60;25.97;;;4.90;99.90;;;;;;5054642;28;20299;-76
2021/05/07 02:39:26;;;;;;;34.90;25.73;;;4.90;99.90;;;;;;5054463;28;20572;-77
2021/05/07 02:41:52;;;;;;;39.80;26.87;;;4.90;99.90;;;;;;5054430;28;20408;-78
2021/05/07 02:44:17;;;;;;;39.67;27.77;;;4.80;99.90;;;;;;5054290;28;20181;-77
2021/05/07 02:46:43;;;;;;;38.73;27.57;;;4.70;99.90;;;;;;5036149;28;20198;-79
2021/05/07 02:49:09;;;;;;;38.83;26.00;;;4.60;99.90;;;;;;5054325;28;20204;-77
2021/05/07 02:51:35;;;;;;;41.70;28.27;;;4.60;99.90;;;;;;5054184;28;20181;-77
2021/05/07 02:54:01;;;;;;;43.67;29.08;;;4.50;99.90;;;;;;5053910;28;20208;-76
2021/05/07 02:56:28;;;;;;;47.80;29.50;;;4.60;99.90;;;;;;5053688;28;20232;-76
2021/05/07 02:58:53;;;;;;;44.55;30.63;;;4.50;99.90;;;;;;5054124;28;20170;-77
2021/05/07 03:01:19;;;;;;;45.60;30.07;;;4.40;99.90;;;;;;5054047;28;20219;-76
2021/05/07 03:03:45;;;;;;;47.35;29.33;;;4.40;99.90;;;;;;5054089;28;20179;-76
2021/05/07 03:06:11;;;;;;;43.80;29.63;;;4.40;99.90;;;;;;5053397;28;20197;-75
2021/05/07 03:08:37;;;;;;;41.35;27.63;;;4.30;99.90;;;;;;5053798;28;20216;-76
2021/05/07 03:11:04;;;;;;;41.30;28.17;;;4.20;99.90;;;;;;5053973;28;20264;-76
2021/05/07 03:13:30;;;;;;;49.75;32.67;;;4.20;99.90;;;;;;5053932;28;20198;-77
2021/05/07 03:15:55;;;;;;;43.50;29.37;;;4.20;99.90;;;;;;5052886;28;20196;-74
2021/05/07 03:18:22;;;;;;;46.83;31.23;;;4.20;99.90;;;;;;5053693;28;20495;-74
2021/05/07 03:20:49;;;;;;;49.88;32.25;;;4.20;99.90;;;;;;5053770;28;20173;-76
2021/05/07 03:23:15;;;;;;;46.78;32.22;;;4.20;99.90;;;;;;5052402;28;20165;-76
2021/05/07 03:25:40;;;;;;;49.70;32.43;;;4.10;99.90;;;;;;5053246;28;20166;-76
2021/05/07 03:28:07;;;;;;;43.30;30.80;;;4.20;99.90;;;;;;5053503;28;20241;-77
2021/05/07 03:30:34;;;;;;;56.78;32.72;;;4.20;99.90;;;;;;5052454;28;20609;-76
2021/05/07 03:33:03;;;;;;;47.17;31.55;;;4.30;99.90;;;;;;5053691;28;20177;-76
2021/05/07 03:35:30;;;;;;;49.95;32.88;;;4.40;99.90;;;;;;5053179;28;20224;-77
2021/05/07 03:37:56;;;;;;;47.15;29.40;;;4.30;99.90;;;;;;5053609;28;20177;-78
2021/05/07 03:40:21;;;;;;;47.80;30.70;;;4.30;99.90;;;;;;5053369;28;20166;-77
2021/05/07 03:42:47;;;;;;;58.40;34.90;;;4.30;99.90;;;;;;5053324;28;20165;-75
2021/05/07 03:45:14;;;;;;;48.93;31.57;;;4.20;99.90;;;;;;5053158;28;20169;-77
2021/05/07 03:47:41;;;;;;;48.40;32.90;;;4.20;99.90;;;;;;5053210;28;20507;-78
2021/05/07 03:50:07;;;;;;;47.35;30.83;;;4.20;99.90;;;;;;5053218;28;20191;-76
2021/05/07 03:52:34;;;;;;;46.90;29.25;;;4.10;99.90;;;;;;5051753;28;20264;-75
2021/05/07 03:55:00;;;;;;;45.85;31.13;;;4.00;99.90;;;;;;5052992;28;20224;-76
2021/05/07 03:57:26;;;;;;;51.60;33.83;;;4.00;99.90;;;;;;5051858;28;20185;-76
2021/05/07 03:59:52;;;;;;;48.73;32.03;;;3.90;99.90;;;;;;5053182;28;20256;-77
2021/05/07 04:02:18;;;;;;;52.42;31.63;;;3.80;99.90;;;;;;5053368;28;20409;-77
2021/05/07 04:04:45;;;;;;;42.70;29.10;;;3.80;99.90;;;;;;5052845;28;20174;-78
2021/05/07 04:07:13;;;;;;;44.47;29.42;;;3.80;99.90;;;;;;5053067;28;20200;-77
2021/05/07 04:09:43;;;;;;;46.53;30.85;;;3.80;99.90;;;;;;5051891;28;20173;-77
2021/05/07 04:12:22;;;;;;;46.13;29.65;;;3.80;99.90;;;;;;5052167;28;20259;-76
2021/05/07 04:14:47;;;;;;;49.13;32.15;;;3.70;99.90;;;;;;5052650;28;20236;-75
2021/05/07 04:17:13;;;;;;;55.53;33.77;;;3.70;99.90;;;;;;5051815;28;20296;-77
2021/05/07 04:19:39;;;;;;;61.90;36.63;;;3.80;99.90;;;;;;5051988;28;20170;-78
2021/05/07 04:22:05;;;;;;;59.43;34.50;;;3.80;99.90;;;;;;5051812;28;20610;-77
2021/05/07 04:24:30;;;;;;;60.25;34.20;;;3.90;99.90;;;;;;5052843;28;20301;-75
2021/05/07 04:26:56;;;;;;;59.87;35.20;;;3.80;99.90;;;;;;5052886;28;20287;-79
2021/05/07 04:29:23;;;;;;;58.03;36.30;;;3.80;99.90;;;;;;5055320;28;20177;-77
2021/05/07 04:31:49;;;;;;;62.67;36.42;;;3.90;99.90;;;;;;5057079;28;20169;-76
2021/05/07 04:34:15;;;;;;;64.00;34.77;;;3.90;99.90;;;;;;5056949;28;20677;-74
2021/05/07 04:36:41;;;;;;;61.20;37.50;;;4.00;99.90;;;;;;5056515;28;20420;-75
2021/05/07 04:39:07;;;;;;;60.33;35.87;;;4.00;99.90;;;;;;5055414;28;20403;-74
2021/05/07 04:41:33;;;;;;;55.78;36.08;;;4.00;99.90;;;;;;5056778;28;20172;-78
2021/05/07 04:43:59;;;;;;;58.50;34.17;;;4.00;99.90;;;;;;5056695;28;20270;-78
2021/05/07 04:46:25;;;;;;;57.80;36.33;;;4.10;99.90;;;;;;5055027;28;20231;-76
2021/05/07 04:48:51;;;;;;;63.23;36.83;;;4.10;99.90;;;;;;5056429;28;20180;-76
2021/05/07 04:51:16;;;;;;;51.53;35.73;;;4.10;99.90;;;;;;5056462;28;20469;-76
2021/05/07 04:53:42;;;;;;;56.93;35.87;;;4.20;99.90;;;;;;5056364;28;20197;-75
2021/05/07 04:56:08;;;;;;;58.73;36.47;;;4.20;99.90;;;;;;5056184;28;20714;-75
2021/05/07 04:58:33;;;;;;;60.63;36.07;;;4.20;99.90;;;;;;5056426;28;20206;-76
2021/05/07 05:00:59;;;;;;;61.70;38.30;;;4.30;99.90;;;;;;5056183;28;20510;-77
2021/05/07 05:03:25;;;;;;;66.87;39.57;;;4.30;99.90;;;;;;5056377;28;20172;-76
2021/05/07 05:05:50;;;;;;;66.57;40.47;;;4.30;99.90;;;;;;5055916;28;20335;-77
2021/05/07 05:08:22;;;;;;;74.30;41.80;;;4.40;99.90;;;;;;5056227;28;20651;-75
2021/05/07 05:10:48;;;;;;;72.45;38.70;;;4.60;99.90;;;;;;5056573;28;20566;-78
2021/05/07 05:13:14;;;;;;;61.47;37.37;;;4.70;99.90;;;;;;5056411;28;20248;-77
2021/05/07 05:15:40;;;;;;;64.80;38.60;;;4.80;99.90;;;;;;5055965;28;20415;-78
2021/05/07 05:18:06;;;;;;;61.20;40.00;;;4.80;99.90;;;;;;5056187;28;20517;-77
2021/05/07 05:20:31;;;;;;;64.00;37.10;;;4.80;99.90;;;;;;5056197;28;20200;-75
2021/05/07 05:22:57;;;;;;;60.47;38.70;;;4.80;99.90;;;;;;5056142;28;20177;-75
2021/05/07 05:25:22;;;;;;;60.83;36.43;;;4.90;99.90;;;;;;5055628;28;20641;-77
2021/05/07 05:27:48;;;;;;;63.70;40.80;;;4.90;99.90;;;;;;5055833;28;20235;-75
2021/05/07 05:30:14;;;;;;;63.77;41.27;;;5.00;99.90;;;;;;5055866;28;20207;-75
2021/05/07 05:32:40;;;;;;;60.35;40.30;;;5.10;99.90;;;;;;5055681;28;20560;-77
2021/05/07 05:35:06;;;;;;;65.40;41.30;;;5.30;99.90;;;;;;5037327;28;20208;-76
2021/05/07 05:37:32;;;;;;;62.70;37.33;;;5.40;99.90;;;;;;5055149;28;20193;-74
2021/05/07 05:39:57;;;;;;;61.28;39.70;;;5.50;99.90;;;;;;5055121;28;20169;-77
2021/05/07 05:42:23;;;;;;;61.87;39.30;;;5.60;99.90;;;;;;5055744;28;20202;-76
2021/05/07 05:44:49;;;;;;;63.10;40.70;;;5.60;99.90;;;;;;5055225;28;20366;-75
2021/05/07 05:47:14;;;;;;;56.70;37.47;;;5.60;99.90;;;;;;5055410;28;20242;-73
2021/05/07 05:49:40;;;;;;;57.33;36.37;;;5.60;99.90;;;;;;5054076;28;20195;-76
2021/05/07 05:52:05;;;;;;;55.43;37.10;;;5.60;99.90;;;;;;5055393;28;20270;-77
2021/05/07 05:54:31;;;;;;;54.87;36.50;;;5.50;99.90;;;;;;5054829;28;20206;-76
2021/05/07 05:56:57;;;;;;;53.47;34.07;;;5.40;99.90;;;;;;5055256;28;20685;-75
2021/05/07 05:59:22;;;;;;;59.37;36.20;;;5.40;99.90;;;;;;5053793;28;20220;-78
2021/05/07 06:01:48;;;;;;;60.47;35.77;;;5.60;99.90;;;;;;5055350;28;20177;-76
2021/05/07 06:04:13;;;;;;;52.60;33.77;;;5.70;99.90;;;;;;5055180;28;20174;-74
2021/05/07 06:06:39;;;;;;;51.07;33.67;;;5.80;99.90;;;;;;5054698;28;20197;-77
2021/05/07 06:09:05;;;;;;;61.87;37.83;;;5.80;99.90;;;;;;5053888;28;20644;-77
2021/05/07 06:11:31;;;;;;;52.60;33.83;;;5.80;99.90;;;;;;5055077;28;20212;-77
2021/05/07 06:13:57;;;;;;;49.00;33.37;;;5.80;99.90;;;;;;5054916;28;20199;-75
2021/05/07 06:16:23;;;;;;;45.70;30.20;;;5.90;99.90;;;;;;5054587;28;20207;-74
2021/05/07 06:18:48;;;;;;;45.90;31.40;;;5.80;99.90;;;;;;5054930;28;20186;-75
2021/05/07 06:21:14;;;;;;;45.00;30.63;;;5.80;99.90;;;;;;5054917;28;20185;-76
2021/05/07 06:23:40;;;;;;;43.97;29.07;;;5.80;99.90;;;;;;5054788;28;20246;-78
2021/05/07 06:26:05;;;;;;;45.77;29.73;;;5.60;99.90;;;;;;5054297;28;20196;-77
2021/05/07 06:28:31;;;;;;;46.37;31.17;;;5.40;99.90;;;;;;5054219;28;20446;-75
2021/05/07 06:30:58;;;;;;;45.23;31.93;;;5.40;99.90;;;;;;5054024;28;20295;-75
2021/05/07 06:33:26;;;;;;;47.70;33.63;;;5.40;99.90;;;;;;5053296;28;20223;-76
2021/05/07 06:35:52;;;;;;;46.45;32.20;;;5.40;99.90;;;;;;5053967;28;20185;-76
2021/05/07 06:38:18;;;;;;;52.95;32.67;;;5.40;99.90;;;;;;5054623;28;20627;-75
2021/05/07 06:40:44;;;;;;;45.60;31.40;;;5.50;99.90;;;;;;5053950;28;20178;-76
2021/05/07 06:43:10;;;;;;;48.45;33.58;;;5.60;99.90;;;;;;5054466;28;20170;-77
2021/05/07 06:45:36;;;;;;;41.07;30.03;;;5.60;99.90;;;;;;5053877;28;20182;-77
2021/05/07 06:48:02;;;;;;;45.13;33.88;;;5.60;99.90;;;;;;5053963;28;20174;-76
2021/05/07 06:50:28;;;;;;;55.73;36.17;;;5.80;99.90;;;;;;5053382;28;20220;-76
2021/05/07 06:52:53;;;;;;;50.03;33.93;;;5.70;99.90;;;;;;5053829;28;20180;-76
2021/05/07 06:55:19;;;;;;;46.93;31.90;;;5.70;99.90;;;;;;5053926;28;20605;-76
2021/05/07 06:57:46;;;;;;;54.00;31.17;;;5.70;99.90;;;;;;5053827;28;20193;-75
2021/05/07 07:00:13;;;;;;;51.42;32.80;;;5.70;99.90;;;;;;5054029;28;20671;-76
2021/05/07 07:02:38;;;;;;;46.28;31.15;;;5.70;99.90;;;;;;5054026;28;20169;-77
2021/05/07 07:05:05;;;;;;;44.90;29.57;;;5.70;99.90;;;;;;5053749;28;20188;-75
2021/05/07 07:07:31;;;;;;;45.88;29.75;;;5.80;99.90;;;;;;5053886;28;20211;-77
2021/05/07 07:09:56;;;;;;;39.90;29.53;;;5.80;99.90;;;;;;5053947;28;20170;-77
2021/05/07 07:12:22;;;;;;;42.10;28.63;;;5.80;99.90;;;;;;5053898;28;20422;-76
2021/05/07 07:14:48;;;;;;;37.03;25.17;;;5.80;99.90;;;;;;5053523;28;20209;-75
2021/05/07 07:17:13;;;;;;;40.87;26.70;;;5.80;99.90;;;;;;5052721;28;20200;-76
2021/05/07 07:19:39;;;;;;;40.40;25.50;;;5.70;99.90;;;;;;5053817;28;20182;-74
2021/05/07 07:22:05;;;;;;;37.50;27.13;;;5.70;99.90;;;;;;5053549;28;20249;-76
2021/05/07 07:24:32;;;;;;;35.47;24.33;;;5.80;99.90;;;;;;5051994;28;20185;-77
2021/05/07 07:26:58;;;;;;;29.30;21.23;;;5.90;99.90;;;;;;5048270;28;20211;-75
2021/05/07 07:29:24;;;;;;;25.25;19.88;;;6.00;99.90;;;;;;5031997;28;20178;-76
2021/05/07 07:31:51;;;;;;;18.37;14.90;;;6.00;99.90;;;;;;5032743;28;20228;-76
2021/05/07 07:34:17;;;;;;;15.05;11.98;;;6.10;99.90;;;;;;5033471;28;20201;-76
2021/05/07 07:36:43;;;;;;;14.77;10.77;;;6.20;99.90;;;;;;5033146;28;20253;-75
2021/05/07 07:39:08;;;;;;;13.77;10.47;;;6.20;99.90;;;;;;5033551;28;20170;-76
2021/05/07 07:41:34;;;;;;;11.73;10.53;;;6.30;99.90;;;;;;5032392;28;20685;-76
2021/05/07 07:44:00;;;;;;;12.70;9.07;;;6.50;99.90;;;;;;5033644;28;20189;-75
2021/05/07 07:46:27;;;;;;;12.93;9.70;;;6.50;99.90;;;;;;5032992;28;20224;-75
2021/05/07 07:48:52;;;;;;;9.73;8.65;;;6.40;99.90;;;;;;5033614;28;20261;-76
2021/05/07 07:51:18;;;;;;;11.00;8.23;;;6.30;99.90;;;;;;5033440;28;20209;-75
2021/05/07 07:53:43;;;;;;;14.00;10.87;;;6.30;99.90;;;;;;5033174;28;20457;-76
2021/05/07 07:56:09;;;;;;;13.83;10.63;;;6.30;99.90;;;;;;5032967;28;20527;-76
2021/05/07 07:58:35;;;;;;;16.70;10.87;;;6.10;99.90;;;;;;5033381;28;20205;-78
2021/05/07 08:01:00;;;;;;;14.70;12.10;;;5.90;99.90;;;;;;5032155;28;20181;-74
2021/05/07 08:03:26;;;;;;;13.00;9.97;;;5.60;99.90;;;;;;5033105;28;20280;-78
2021/05/07 08:05:52;;;;;;;13.37;9.90;;;5.10;99.90;;;;;;5031693;28;20197;-77
2021/05/07 08:08:17;;;;;;;12.07;10.47;;;4.50;99.90;;;;;;5033037;28;20545;-78
2021/05/07 08:10:43;;;;;;;12.80;10.20;;;4.40;99.90;;;;;;5033092;28;20172;-76
2021/05/07 08:13:08;;;;;;;16.17;8.40;;;4.30;99.90;;;;;;5033356;28;20752;-77
2021/05/07 08:15:34;;;;;;;14.37;9.47;;;4.10;99.90;;;;;;5031750;28;20237;-76
2021/05/07 08:18:00;;;;;;;14.60;11.30;;;3.90;99.90;;;;;;5033181;28;20198;-77
2021/05/07 08:20:27;;;;;;;12.13;10.67;;;3.90;99.90;;;;;;5033066;28;20169;-76
2021/05/07 08:22:52;;;;;;;13.10;10.02;;;4.10;99.90;;;;;;5031814;28;20507;-75
2021/05/07 08:25:20;;;;;;;10.60;9.03;;;4.10;99.90;;;;;;5032890;28;20174;-75
2021/05/07 08:27:45;;;;;;;15.30;11.43;;;4.20;99.90;;;;;;5032946;28;20193;-75
2021/05/07 08:30:12;;;;;;;12.27;10.03;;;4.40;99.90;;;;;;5033169;28;20629;-74
2021/05/07 08:32:38;;;;;;;11.43;9.65;;;4.60;99.90;;;;;;5033105;28;20232;-74
2021/05/07 08:35:04;;;;;;;11.40;10.20;;;4.70;99.90;;;;;;5032597;28;20193;-74
2021/05/07 08:37:30;;;;;;;13.52;11.05;;;4.80;99.90;;;;;;5031759;28;20440;-74
2021/05/07 08:39:56;;;;;;;13.07;11.40;;;5.00;99.90;;;;;;5033036;28;20171;-75
2021/05/07 08:42:22;;;;;;;13.90;11.95;;;4.90;99.90;;;;;;5032947;28;20170;-74
2021/05/07 08:44:49;;;;;;;13.43;12.03;;;5.10;99.90;;;;;;5032471;28;20305;-74
2021/05/07 08:47:21;;;;;;;15.43;12.80;;;5.10;99.90;;;;;;5032947;28;20200;-75
2021/05/07 08:49:48;;;;;;;15.85;11.50;;;5.30;99.90;;;;;;5032816;28;20173;-74
2021/05/07 08:52:14;;;;;;;12.88;9.85;;;5.60;99.90;;;;;;5032830;28;20538;-74
2021/05/07 08:54:40;;;;;;;12.85;10.88;;;5.60;99.90;;;;;;5032175;28;20200;-73
2021/05/07 08:57:05;;;;;;;10.20;9.10;;;5.50;99.90;;;;;;5031637;28;20721;-75
2021/05/07 08:59:33;;;;;;;12.50;11.30;;;5.60;99.90;;;;;;5031441;28;20265;-74
2021/05/07 09:01:58;;;;;;;12.95;11.43;;;5.90;99.90;;;;;;5031504;28;20498;-74
2021/05/07 09:04:24;;;;;;;11.17;9.97;;;5.90;99.90;;;;;;5031409;28;20253;-76
2021/05/07 09:06:51;;;;;;;14.57;12.90;;;5.80;99.90;;;;;;5032106;28;20197;-75
2021/05/07 09:09:31;;;;;;;13.50;12.02;;;6.10;99.90;;;;;;5031458;28;20228;-74
2021/05/07 09:11:59;;;;;;;13.20;11.80;;;6.10;99.90;;;;;;5031673;28;20184;-74
2021/05/07 09:14:26;;;;;;;14.30;12.95;;;6.00;99.90;;;;;;5034177;28;20193;-76
2021/05/07 09:17:00;;;;;;;16.42;14.57;;;6.30;99.90;;;;;;5035857;28;20690;-74
2021/05/07 09:19:31;;;;;;;18.30;16.38;;;6.60;99.90;;;;;;5036257;28;20184;-74
2021/05/07 09:21:57;;;;;;;14.70;13.20;;;6.90;99.90;;;;;;5036276;28;20174;-74
2021/05/07 09:24:35;;;;;;;13.70;12.10;;;6.90;99.90;;;;;;5036263;28;20229;-74
2021/05/07 09:27:02;;;;;;;14.40;12.82;;;7.00;99.90;;;;;;5036003;28;20307;-74
2021/05/07 09:29:32;;;;;;;12.95;10.40;;;7.20;99.90;;;;;;5036053;28;20201;-74
2021/05/07 09:32:03;;;;;;;11.95;8.20;;;7.30;99.90;;;;;;5034762;28;20174;-74
2021/05/07 09:34:36;;;;;;;6.07;4.05;;;7.40;99.90;;;;;;5035860;28;20220;-77
2021/05/07 09:37:12;;;;;;;5.28;4.65;;;7.00;99.90;;;;;;5035785;28;20186;-75
2021/05/07 09:39:38;;;;;;;5.85;5.25;;;6.90;99.90;;;;;;5035892;28;20575;-76
2021/05/07 09:42:04;;;;;;;9.87;6.10;;;6.70;99.90;;;;;;5035694;28;20206;-76
2021/05/07 09:44:34;;;;;;;5.75;5.25;;;6.90;99.90;;;;;;5035272;28;20174;-77
2021/05/07 09:47:00;;;;;;;4.78;4.38;;;6.90;99.90;;;;;;5035481;28;20201;-76
2021/05/07 09:49:30;;;;;;;4.70;4.23;;;7.40;99.90;;;;;;5034331;28;20178;-76
2021/05/07 09:51:57;;;;;;;5.75;4.32;;;7.20;99.90;;;;;;5035602;28;20208;-77
2021/05/07 09:54:24;;;;;;;4.28;3.88;;;7.30;99.90;;;;;;5035246;28;20194;-75
2021/05/07 09:56:50;;;;;;;3.90;3.15;;;7.70;99.90;;;;;;5034988;28;20190;-75
2021/05/07 09:59:18;;;;;;;3.80;3.47;;;8.30;99.90;;;;;;5035094;28;20176;-76
2021/05/07 10:01:45;;;;;;;3.58;3.17;;;8.00;99.90;;;;;;5035172;28;20901;-75
2021/05/07 10:04:12;;;;;;;2.83;2.63;;;7.90;99.90;;;;;;5033916;28;20538;-75
2021/05/07 10:06:39;;;;;;;3.58;3.28;;;7.60;99.90;;;;;;5034825;28;20621;-77
2021/05/07 10:09:09;;;;;;;3.30;3.00;;;7.40;99.90;;;;;;5035283;28;20178;-76
2021/05/07 10:11:43;;;;;;;4.25;3.20;;;8.00;99.90;;;;;;5035122;28;20229;-77
2021/05/07 10:14:11;;;;;;;2.80;2.50;;;8.80;99.90;;;;;;5034972;28;20209;-78
2021/05/07 10:16:39;;;;;;;4.45;2.42;;;8.50;99.90;;;;;;5033468;28;20654;-76
2021/05/07 10:19:07;;;;;;;2.30;2.05;;;8.60;99.90;;;;;;5035175;28;20154;-77
2021/05/07 10:21:37;;;;;;;3.30;2.55;;;8.50;99.90;;;;;;5034832;28;20180;-76
2021/05/07 10:24:04;;;;;;;3.70;2.63;;;8.70;99.90;;;;;;5035107;28;20492;-77
2021/05/07 10:26:45;;;;;;;2.70;2.20;;;9.20;99.90;;;;;;5034416;28;20512;-78
2021/05/07 10:29:22;;;;;;;1.67;1.57;;;9.50;99.90;;;;;;5034911;28;20452;-76
2021/05/07 10:31:59;;;;;;;2.53;1.90;;;9.00;99.90;;;;;;5034739;28;20393;-76
2021/05/07 10:34:27;;;;;;;5.43;2.30;;;9.20;99.90;;;;;;5034702;28;20509;-78
2021/05/07 10:36:54;;;;;;;1.35;1.25;;;9.00;99.90;;;;;;5034529;28;20424;-79
2021/05/07 10:39:22;;;;;;;2.05;1.83;;;8.50;99.90;;;;;;5033678;28;20511;-79
2021/05/07 10:41:50;;;;;;;2.78;2.08;;;8.40;99.90;;;;;;5034618;28;20195;-77
2021/05/07 10:44:17;;;;;;;2.40;2.17;;;8.40;99.90;;;;;;5034709;28;20221;-77
2021/05/07 10:46:45;;;;;;;2.80;2.00;;;8.90;99.90;;;;;;5034284;28;20194;-78
2021/05/07 10:49:11;;;;;;;3.40;2.00;;;9.20;99.90;;;;;;5034477;28;20170;-78
2021/05/07 10:51:37;;;;;;;4.05;1.77;;;9.30;99.90;;;;;;5034316;28;20258;-77
2021/05/07 10:54:11;;;;;;;2.10;1.90;;;9.00;99.90;;;;;;5034165;28;20230;-77
2021/05/07 10:56:39;;;;;;;2.47;1.95;;;9.30;99.90;;;;;;5034092;28;20193;-78
2021/05/07 10:59:18;;;;;;;3.88;1.55;;;9.10;99.90;;;;;;5034199;28;20253;-76
2021/05/07 11:01:59;;;;;;;1.97;1.87;;;9.60;99.90;;;;;;5032874;28;20170;-77
2021/05/07 11:04:25;;;;;;;1.83;1.73;;;10.40;99.90;;;;;;5034038;28;20404;-79
2021/05/07 11:07:02;;;;;;;2.40;2.20;;;10.60;99.90;;;;;;5033673;28;20481;-79
2021/05/07 11:09:28;;;;;;;2.13;1.90;;;9.80;99.90;;;;;;5034093;28;20550;-80
2021/05/07 11:12:04;;;;;;;2.13;1.92;;;10.30;99.90;;;;;;5033808;28;20525;-80
2021/05/07 11:14:34;;;;;;;3.63;2.03;;;10.50;99.90;;;;;;5033521;28;20645;-79
2021/05/07 11:17:00;;;;;;;3.40;2.53;;;9.90;99.90;;;;;;5033948;28;20436;-76
2021/05/07 11:19:31;;;;;;;3.63;2.80;;;9.70;99.90;;;;;;5034119;28;20729;-79
2021/05/07 11:21:59;;;;;;;3.22;2.92;;;9.40;99.90;;;;;;5033860;28;20530;-77
2021/05/07 11:24:36;;;;;;;2.60;2.40;;;9.70;99.90;;;;;;5033774;28;20174;-77
2021/05/07 11:27:23;;;;;;;2.80;2.60;;;10.30;99.90;;;;;;5032482;28;20201;-78
2021/05/07 11:30:09;;;;;;;4.00;2.80;;;10.40;99.90;;;;;;5033697;28;20416;-79
2021/05/07 11:32:35;;;;;;;3.90;3.13;;;10.20;99.90;;;;;;5033669;28;20233;-81
2021/05/07 11:35:12;;;;;;;2.97;2.60;;;10.40;99.90;;;;;;5033423;28;20384;-76
2021/05/07 11:37:41;;;;;;;2.92;2.55;;;10.30;99.90;;;;;;5033119;28;20239;-78
2021/05/07 11:40:15;;;;;;;3.38;3.08;;;9.80;99.90;;;;;;5032097;28;20228;-77
2021/05/07 11:42:43;;;;;;;2.50;2.30;;;10.10;99.90;;;;;;5032363;28;20261;-79
2021/05/07 11:45:18;;;;;;;3.10;2.90;;;9.70;99.90;;;;;;5033271;28;20638;-78
2021/05/07 11:47:44;;;;;;;2.97;2.78;;;9.70;99.90;;;;;;5032152;28;20567;-78
2021/05/07 11:50:12;;;;;;;3.30;2.97;;;10.20;99.90;;;;;;5033504;28;20174;-77
2021/05/07 11:52:39;;;;;;;2.07;1.80;;;11.10;99.90;;;;;;5033430;28;20181;-80
2021/05/07 11:55:07;;;;;;;5.40;2.13;;;11.60;99.90;;;;;;5031675;28;20552;-78
2021/05/07 11:57:33;;;;;;;3.03;2.40;;;11.90;99.90;;;;;;5032049;28;20468;-78
2021/05/07 11:59:59;;;;;;;2.40;2.20;;;12.20;99.90;;;;;;5032112;28;20734;-78
2021/05/07 12:02:30;;;;;;;2.60;2.40;;;11.90;99.90;;;;;;5031802;28;20424;-78
2021/05/07 12:04:56;;;;;;;2.77;2.57;;;11.30;99.90;;;;;;5032894;28;20430;-78
2021/05/07 12:07:27;;;;;;;4.13;2.40;;;11.10;99.90;;;;;;5032975;28;20863;-77
2021/05/07 12:09:55;;;;;;;2.27;2.07;;;10.80;99.90;;;;;;5031826;28;20417;-78
2021/05/07 12:12:21;;;;;;;3.05;2.75;;;10.40;99.90;;;;;;5032887;28;20749;-79
2021/05/07 12:14:50;;;;;;;3.00;2.70;;;10.50;99.90;;;;;;5032569;28;20235;-79
2021/05/07 12:17:24;;;;;;;2.93;2.67;;;11.10;99.90;;;;;;5032999;28;20194;-75
2021/05/07 12:20:01;;;;;;;2.60;2.30;;;11.30;99.90;;;;;;5033385;28;20750;-77
2021/05/07 12:22:27;;;;;;;4.53;2.70;;;11.80;99.90;;;;;;5031307;28;20454;-77
2021/05/07 12:24:53;;;;;;;3.10;2.40;;;12.30;99.90;;;;;;5032666;28;20405;-76
2021/05/07 12:27:28;;;;;;;2.30;2.10;;;12.50;99.90;;;;;;5031586;28;20836;-76
2021/05/07 12:29:54;;;;;;;2.37;2.17;;;12.60;99.90;;;;;;5031610;28;20447;-77
2021/05/07 12:32:23;;;;;;;2.50;2.30;;;12.30;99.90;;;;;;5032828;28;20405;-76
2021/05/07 12:35:00;;;;;;;3.00;2.33;;;12.30;99.90;;;;;;5032513;28;20198;-78
2021/05/07 12:37:37;;;;;;;3.33;3.00;;;12.30;99.90;;;;;;5032759;28;20471;-74
2021/05/07 12:40:04;;;;;;;3.30;2.40;;;12.00;99.90;;;;;;5031633;28;20401;-77
2021/05/07 12:42:29;;;;;;;3.20;2.90;;;12.10;99.90;;;;;;5032654;28;20500;-81